Aérodrome :
LOGIN :

S'inscrire | Disclaimer

   EN    FR    IT 

 










Légende :    VFR   VFR Marginal   IFR   IFR Intensif   IFR Très Intensif
Visi : 
Plafond : 
>= 8 km
>= 3000ft
5 à 8 km
1000 à 3000 ft
1500m à 5 km
500 à 1000 ft
800 à 1500m
200 à 500 ft
< 800m
< 200 ft
Symboles :   Orages  Brouillard  Fortes neiges  Fortes précipitations  Vent > 20 kt
SIGMETs :   Divers  Orages  Givrage  Turbulence  Onde Orograph.  Cendres Volcan.






- Altitude de l'aérodrome : 81 ft
- Code IATA : SCS


EGPM - Scatsta

DERNIER METAR :
  • 131420Z 06004KT 030V120 9999 VCSH FEW019CB 03/M00 Q0997

METARs EXPIRÉS :
  • 131350Z 05007KT 9999 VCSH FEW019CB 04/00 Q0997 TEMPO 4000 SHRASN
  • 131320Z 05007KT 9999 VCSH FEW019CB 04/00 Q0997 TEMPO 4000 SHRASN
  • 131250Z 04009KT 9999 VCSH FEW019CB 04/00 Q0997 TEMPO 4000 SHRASN
  • 131220Z VRB03KT 9999 VCSH FEW019CB 03/M00 Q0997 TEMPO 4000 SHRASN
  • 131150Z VRB01KT 9999 VCSH FEW017CB 01/M01 Q0997 TEMPO 4000 SHRASN

TAF TAF EGPM
Valide du 13 à 15h jusqu'au 13 à 20h UTC


131356Z 1315/1320 35007KT 9999 FEW035
PROB30
TEMPO 1315/1320 4000 SHRASN



MET'MAP, la Météo Aéronautique d'un coup d'oeil ! - Copyright ORBIFLY Décembre 2007 - Disclaimer

ORBIFLY MET'MAP TEAM :

Programmation & Développement : Alexandra Zaïnal
Conception & Développement : Baudouin d'Aumeries
Co-Programmation & Développement : Marc-Olivier Méhu
Soutien technique & logistique : Manuel Goepfert

Contact : metmap@orbifly.com




SOURCES & CREDITS :

   NOAA